This is the latest recevied weather packets stored in our database for station/object OE-11361. If no packets are shown the sender has not sent any weather packets the latest 10 day(s).
| Time | Temp. | Humidity | Pressure | Rain* | Wind** | Luminosity | Snow |
|---|---|---|---|---|---|---|---|
| 1788445504 | 26.67° C | 40% | 1018.6 hPa | 0 mm | - | 613 W/m² | - |
| 1788443704 | 26.11° C | 42% | 1018.5 hPa | 0 mm | - | 351 W/m² | - |
| 1788442504 | 26.67° C | 40% | 1018.4 hPa | 0 mm | - | 696 W/m² | - |
| 1788441904 | 26.67° C | 38% | 1018.8 hPa | 0 mm | - | 765 W/m² | - |
| 1788441078 | 26.67° C | 43% | 1018.7 hPa | 0 mm | - | 717 W/m² | - |
| 1788439277 | 26.67° C | 42% | 1018.8 hPa | 0 mm | - | 806 W/m² | - |
| 1788434704 | 25° C | 43% | 1019.2 hPa | 0 mm | - | 586 W/m² | - |
| 1788433877 | 25° C | 42% | 1019.2 hPa | 0 mm | - | 682 W/m² | - |
| 1788433504 | 25° C | 41% | 1019.5 hPa | 0 mm | - | 786 W/m² | - |
| 1788431704 | 25° C | 44% | 1019.7 hPa | 0 mm | - | 586 W/m² | - |
| 1788431104 | 25.56° C | 45% | 1019.6 hPa | 0 mm | - | 772 W/m² | - |
| 1788430277 | 24.44° C | 45% | 1019.9 hPa | 0 mm | - | 744 W/m² | - |
| 1788429904 | 24.44° C | 46% | 1020.3 hPa | 0 mm | - | 696 W/m² | - |
| 1788428477 | 23.89° C | 45% | 1020.5 hPa | 0 mm | - | 703 W/m² | - |
| 1788428104 | 23.33° C | 50% | 1020.8 hPa | 0 mm | - | 551 W/m² | - |
| 1788426677 | 22.78° C | 58% | 1020.9 hPa | 0 mm | - | 675 W/m² | - |
| 1788426304 | 22.22° C | 62% | 1021.1 hPa | 0 mm | - | 627 W/m² | - |
| 1788425704 | 21.11° C | 63% | 1021.3 hPa | 0 mm | - | 489 W/m² | - |
| 1788424877 | 20.56° C | 66% | 1021.6 hPa | 0 mm | - | 517 W/m² | - |
| 1788424504 | 20° C | 68% | 1021.8 hPa | 0 mm | - | 338 W/m² | - |
| 1788423904 | 19.44° C | 68% | 1021.9 hPa | 0 mm | - | 283 W/m² | - |
| 1788423077 | 18.89° C | 70% | 1022 hPa | 0 mm | - | 276 W/m² | - |
| 1788422704 | 18.89° C | 71% | 1022.1 hPa | 0 mm | - | 296 W/m² | - |
| 1788422104 | 18.33° C | 75% | 1022.1 hPa | 0 mm | - | 296 W/m² | - |
| 1788421277 | 17.78° C | 77% | 1022.2 hPa | 0 mm | - | 241 W/m² | - |
* Rain latest hour (hover to see other rain measurements)
** Current wind speed in m/s (hover to see current wind gust speed)